sensor_id;sensor_type;location;lat;lon;timestamp;pressure;altitude;pressure_sealevel;temperature;humidity
74169;BME280;62523;53.336;83.690;2023-09-07T00:01:25;98977.06;;;6.84;100.00
74169;BME280;62523;53.336;83.690;2023-09-07T00:06:26;98984.34;;;6.78;100.00
74169;BME280;62523;53.336;83.690;2023-09-07T00:11:28;98982.19;;;6.86;100.00
74169;BME280;62523;53.336;83.690;2023-09-07T00:16:33;98974.91;;;6.92;100.00
74169;BME280;62523;53.336;83.690;2023-09-07T00:21:39;98983.25;;;7.01;100.00
74169;BME280;62523;53.336;83.690;2023-09-07T00:26:40;98989.47;;;7.17;100.00
74169;BME280;62523;53.336;83.690;2023-09-07T00:31:43;98984.06;;;7.20;100.00
74169;BME280;62523;53.336;83.690;2023-09-07T00:36:44;98982.09;;;7.25;100.00
74169;BME280;62523;53.336;83.690;2023-09-07T00:41:46;98990.03;;;7.24;100.00
74169;BME280;62523;53.336;83.690;2023-09-07T00:46:47;98987.88;;;7.32;100.00
74169;BME280;62523;53.336;83.690;2023-09-07T00:51:49;98994.53;;;7.39;100.00
74169;BME280;62523;53.336;83.690;2023-09-07T00:56:50;98997.63;;;7.47;100.00
74169;BME280;62523;53.336;83.690;2023-09-07T01:01:52;98998.41;;;7.49;100.00
74169;BME280;62523;53.336;83.690;2023-09-07T01:07:07;99007.72;;;7.55;100.00
74169;BME280;62523;53.336;83.690;2023-09-07T01:12:15;99012.75;;;7.59;100.00
74169;BME280;62523;53.336;83.690;2023-09-07T01:17:17;99011.97;;;7.57;100.00
74169;BME280;62523;53.336;83.690;2023-09-07T01:22:22;99021.16;;;7.66;100.00
74169;BME280;62523;53.336;83.690;2023-09-07T01:27:24;99013.44;;;7.63;100.00
74169;BME280;62523;53.336;83.690;2023-09-07T01:32:26;99012.44;;;7.66;100.00
74169;BME280;62523;53.336;83.690;2023-09-07T01:37:28;99016.63;;;8.05;100.00
74169;BME280;62523;53.336;83.690;2023-09-07T01:42:30;99027.75;;;7.92;100.00
74169;BME280;62523;53.336;83.690;2023-09-07T01:47:31;99026.78;;;8.11;100.00
74169;BME280;62523;53.336;83.690;2023-09-07T01:52:33;99034.28;;;8.01;100.00
74169;BME280;62523;53.336;83.690;2023-09-07T01:57:35;99043.63;;;8.24;100.00
74169;BME280;62523;53.336;83.690;2023-09-07T02:02:36;99045.25;;;8.09;100.00
74169;BME280;62523;53.336;83.690;2023-09-07T02:07:39;99055.38;;;8.52;100.00
74169;BME280;62523;53.336;83.690;2023-09-07T02:12:41;99060.78;;;8.65;100.00
74169;BME280;62523;53.336;83.690;2023-09-07T02:17:42;99061.88;;;8.78;100.00
74169;BME280;62523;53.336;83.690;2023-09-07T02:22:50;99074.25;;;8.92;100.00
74169;BME280;62523;53.336;83.690;2023-09-07T02:27:51;99081.81;;;8.98;100.00
74169;BME280;62523;53.336;83.690;2023-09-07T02:32:53;99084.06;;;9.37;100.00
74169;BME280;62523;53.336;83.690;2023-09-07T02:37:54;99093.03;;;9.33;100.00
74169;BME280;62523;53.336;83.690;2023-09-07T02:42:56;99098.28;;;9.33;100.00
74169;BME280;62523;53.336;83.690;2023-09-07T02:47:58;99108.06;;;9.63;100.00
74169;BME280;62523;53.336;83.690;2023-09-07T02:53:00;99122.41;;;9.57;100.00
74169;BME280;62523;53.336;83.690;2023-09-07T02:58:03;99124.03;;;10.06;100.00
74169;BME280;62523;53.336;83.690;2023-09-07T03:03:05;99134.63;;;9.42;100.00
74169;BME280;62523;53.336;83.690;2023-09-07T03:08:07;99136.03;;;9.16;100.00
74169;BME280;62523;53.336;83.690;2023-09-07T03:13:09;99149.25;;;9.15;100.00
74169;BME280;62523;53.336;83.690;2023-09-07T03:18:11;99151.22;;;9.27;100.00
74169;BME280;62523;53.336;83.690;2023-09-07T03:23:14;99149.63;;;9.88;100.00
74169;BME280;62523;53.336;83.690;2023-09-07T03:28:16;99150.09;;;10.27;100.00
74169;BME280;62523;53.336;83.690;2023-09-07T03:33:20;99144.47;;;10.63;100.00
74169;BME280;62523;53.336;83.690;2023-09-07T03:38:21;99150.59;;;10.63;100.00
74169;BME280;62523;53.336;83.690;2023-09-07T03:43:23;99163.56;;;10.52;100.00
74169;BME280;62523;53.336;83.690;2023-09-07T03:48:25;99161.44;;;10.88;100.00
74169;BME280;62523;53.336;83.690;2023-09-07T03:53:26;99169.00;;;11.22;100.00
74169;BME280;62523;53.336;83.690;2023-09-07T03:58:28;99169.22;;;11.34;100.00
74169;BME280;62523;53.336;83.690;2023-09-07T04:03:30;99167.78;;;11.42;100.00
74169;BME280;62523;53.336;83.690;2023-09-07T04:08:33;99172.66;;;11.48;100.00
74169;BME280;62523;53.336;83.690;2023-09-07T04:13:35;99175.69;;;11.14;100.00
74169;BME280;62523;53.336;83.690;2023-09-07T04:18:37;99161.69;;;11.27;100.00
74169;BME280;62523;53.336;83.690;2023-09-07T04:23:39;99159.38;;;11.50;100.00
74169;BME280;62523;53.336;83.690;2023-09-07T04:28:41;99170.13;;;11.47;100.00
74169;BME280;62523;53.336;83.690;2023-09-07T04:33:43;99166.94;;;11.13;100.00
74169;BME280;62523;53.336;83.690;2023-09-07T04:38:45;99165.84;;;10.73;100.00
74169;BME280;62523;53.336;83.690;2023-09-07T04:43:46;99166.91;;;10.99;100.00
74169;BME280;62523;53.336;83.690;2023-09-07T04:48:48;99163.59;;;11.67;100.00
74169;BME280;62523;53.336;83.690;2023-09-07T04:53:51;99156.59;;;11.80;100.00
74169;BME280;62523;53.336;83.690;2023-09-07T04:58:53;99154.06;;;12.20;100.00
74169;BME280;62523;53.336;83.690;2023-09-07T05:03:54;99157.84;;;12.16;100.00
74169;BME280;62523;53.336;83.690;2023-09-07T05:08:56;99161.81;;;11.67;100.00
74169;BME280;62523;53.336;83.690;2023-09-07T05:13:58;99162.22;;;12.03;100.00
74169;BME280;62523;53.336;83.690;2023-09-07T05:19:01;99164.66;;;12.06;100.00
74169;BME280;62523;53.336;83.690;2023-09-07T05:24:03;99157.34;;;12.24;100.00
74169;BME280;62523;53.336;83.690;2023-09-07T05:29:05;99172.44;;;12.22;100.00
74169;BME280;62523;53.336;83.690;2023-09-07T05:34:07;99167.06;;;11.96;100.00
74169;BME280;62523;53.336;83.690;2023-09-07T05:39:08;99160.13;;;12.08;100.00
74169;BME280;62523;53.336;83.690;2023-09-07T05:44:10;99161.94;;;12.35;100.00
74169;BME280;62523;53.336;83.690;2023-09-07T05:49:11;99153.22;;;13.11;100.00
74169;BME280;62523;53.336;83.690;2023-09-07T05:54:13;99145.25;;;12.47;99.48
74169;BME280;62523;53.336;83.690;2023-09-07T05:59:15;99146.81;;;12.49;100.00
74169;BME280;62523;53.336;83.690;2023-09-07T06:04:17;99151.38;;;12.35;100.00
74169;BME280;62523;53.336;83.690;2023-09-07T06:09:19;99152.06;;;12.37;100.00
74169;BME280;62523;53.336;83.690;2023-09-07T06:14:20;99150.97;;;12.54;100.00
74169;BME280;62523;53.336;83.690;2023-09-07T06:19:23;99146.06;;;13.76;100.00
74169;BME280;62523;53.336;83.690;2023-09-07T06:24:25;99134.59;;;13.51;95.34
74169;BME280;62523;53.336;83.690;2023-09-07T06:29:27;99138.47;;;13.95;89.31
74169;BME280;62523;53.336;83.690;2023-09-07T06:34:28;99131.38;;;13.59;89.11
74169;BME280;62523;53.336;83.690;2023-09-07T06:39:30;99126.19;;;13.94;93.66
74169;BME280;62523;53.336;83.690;2023-09-07T06:44:33;99131.69;;;14.15;94.22
74169;BME280;62523;53.336;83.690;2023-09-07T06:49:39;99130.03;;;13.53;94.58
74169;BME280;62523;53.336;83.690;2023-09-07T06:54:41;99131.88;;;13.77;93.48
74169;BME280;62523;53.336;83.690;2023-09-07T06:59:43;99124.25;;;13.35;96.99
74169;BME280;62523;53.336;83.690;2023-09-07T07:04:45;99127.41;;;13.40;99.25
74169;BME280;62523;53.336;83.690;2023-09-07T07:09:49;99120.66;;;13.97;97.50
74169;BME280;62523;53.336;83.690;2023-09-07T07:14:52;99123.00;;;14.72;91.37
74169;BME280;62523;53.336;83.690;2023-09-07T07:19:53;99130.22;;;14.11;93.78
74169;BME280;62523;53.336;83.690;2023-09-07T07:24:55;99124.03;;;13.99;91.26
74169;BME280;62523;53.336;83.690;2023-09-07T07:29:57;99127.84;;;14.43;88.55
74169;BME280;62523;53.336;83.690;2023-09-07T07:34:59;99127.34;;;14.38;87.95
74169;BME280;62523;53.336;83.690;2023-09-07T07:40:02;99127.72;;;13.85;89.62
74169;BME280;62523;53.336;83.690;2023-09-07T07:45:04;99146.06;;;12.35;94.54
74169;BME280;62523;53.336;83.690;2023-09-07T07:50:08;99143.13;;;12.12;100.00
74169;BME280;62523;53.336;83.690;2023-09-07T07:55:11;99138.47;;;12.43;100.00
74169;BME280;62523;53.336;83.690;2023-09-07T08:00:14;99133.19;;;12.56;100.00
74169;BME280;62523;53.336;83.690;2023-09-07T08:05:22;99125.53;;;12.78;100.00
74169;BME280;62523;53.336;83.690;2023-09-07T08:10:23;99128.59;;;12.85;98.63
74169;BME280;62523;53.336;83.690;2023-09-07T08:15:25;99124.78;;;12.76;97.80
74169;BME280;62523;53.336;83.690;2023-09-07T08:20:27;99118.63;;;13.14;97.05
74169;BME280;62523;53.336;83.690;2023-09-07T08:25:31;99123.06;;;13.14;98.27
74169;BME280;62523;53.336;83.690;2023-09-07T08:30:33;99136.84;;;13.19;96.71
74169;BME280;62523;53.336;83.690;2023-09-07T08:35:35;99146.69;;;11.84;97.11
74169;BME280;62523;53.336;83.690;2023-09-07T08:40:39;99143.31;;;11.82;100.00
74169;BME280;62523;53.336;83.690;2023-09-07T08:45:53;99138.19;;;11.66;100.00
74169;BME280;62523;53.336;83.690;2023-09-07T08:51:04;99145.69;;;11.72;100.00
74169;BME280;62523;53.336;83.690;2023-09-07T08:56:07;99144.81;;;11.44;100.00
74169;BME280;62523;53.336;83.690;2023-09-07T09:01:11;99152.69;;;11.59;100.00
74169;BME280;62523;53.336;83.690;2023-09-07T09:06:15;99142.25;;;11.99;100.00
74169;BME280;62523;53.336;83.690;2023-09-07T09:11:18;99139.91;;;13.00;100.00
74169;BME280;62523;53.336;83.690;2023-09-07T09:16:22;99134.78;;;12.58;100.00
74169;BME280;62523;53.336;83.690;2023-09-07T09:21:25;99134.78;;;12.58;100.00
74169;BME280;62523;53.336;83.690;2023-09-07T09:26:27;99140.06;;;12.58;100.00
74169;BME280;62523;53.336;83.690;2023-09-07T09:31:29;99133.47;;;12.78;100.00
74169;BME280;62523;53.336;83.690;2023-09-07T09:36:34;99132.06;;;12.85;100.00
74169;BME280;62523;53.336;83.690;2023-09-07T09:41:37;99132.41;;;12.94;100.00
74169;BME280;62523;53.336;83.690;2023-09-07T09:46:41;99134.38;;;12.77;100.00
74169;BME280;62523;53.336;83.690;2023-09-07T09:51:45;99139.50;;;12.93;100.00
74169;BME280;62523;53.336;83.690;2023-09-07T09:56:47;99133.34;;;12.67;100.00
74169;BME280;62523;53.336;83.690;2023-09-07T10:01:49;99138.38;;;12.44;100.00
74169;BME280;62523;53.336;83.690;2023-09-07T10:06:55;99144.50;;;12.45;100.00
74169;BME280;62523;53.336;83.690;2023-09-07T10:11:58;99145.47;;;12.44;100.00
74169;BME280;62523;53.336;83.690;2023-09-07T10:17:01;99138.63;;;12.54;100.00
74169;BME280;62523;53.336;83.690;2023-09-07T10:22:05;99140.78;;;12.47;100.00
74169;BME280;62523;53.336;83.690;2023-09-07T10:27:08;99141.00;;;12.44;100.00
74169;BME280;62523;53.336;83.690;2023-09-07T10:32:10;99136.25;;;12.49;100.00
74169;BME280;62523;53.336;83.690;2023-09-07T10:37:14;99138.81;;;12.51;100.00
74169;BME280;62523;53.336;83.690;2023-09-07T10:42:21;99139.06;;;12.74;100.00
74169;BME280;62523;53.336;83.690;2023-09-07T10:47:23;99144.75;;;12.67;100.00
74169;BME280;62523;53.336;83.690;2023-09-07T10:52:24;99146.13;;;12.73;100.00
74169;BME280;62523;53.336;83.690;2023-09-07T10:57:26;99140.09;;;12.71;100.00
74169;BME280;62523;53.336;83.690;2023-09-07T11:02:28;99141.69;;;12.74;100.00
74169;BME280;62523;53.336;83.690;2023-09-07T11:07:29;99139.34;;;12.82;100.00
74169;BME280;62523;53.336;83.690;2023-09-07T11:12:36;99136.31;;;12.88;100.00
74169;BME280;62523;53.336;83.690;2023-09-07T11:17:38;99142.97;;;12.94;100.00
74169;BME280;62523;53.336;83.690;2023-09-07T11:22:41;99138.63;;;13.05;100.00
74169;BME280;62523;53.336;83.690;2023-09-07T11:27:43;99140.00;;;13.11;100.00
74169;BME280;62523;53.336;83.690;2023-09-07T11:32:44;99146.56;;;13.05;100.00
74169;BME280;62523;53.336;83.690;2023-09-07T11:37:51;99149.41;;;13.15;100.00
74169;BME280;62523;53.336;83.690;2023-09-07T11:42:53;99148.78;;;13.11;100.00
74169;BME280;62523;53.336;83.690;2023-09-07T11:47:55;99155.97;;;13.09;100.00
74169;BME280;62523;53.336;83.690;2023-09-07T11:52:56;99155.78;;;13.00;100.00
74169;BME280;62523;53.336;83.690;2023-09-07T11:57:58;99137.59;;;12.82;100.00
74169;BME280;62523;53.336;83.690;2023-09-07T12:03:00;99159.56;;;12.70;100.00
74169;BME280;62523;53.336;83.690;2023-09-07T12:08:01;99163.31;;;12.53;100.00
74169;BME280;62523;53.336;83.690;2023-09-07T12:13:03;99164.69;;;12.46;100.00
74169;BME280;62523;53.336;83.690;2023-09-07T12:18:04;99164.44;;;12.36;100.00
74169;BME280;62523;53.336;83.690;2023-09-07T12:23:05;99166.00;;;12.26;100.00
74169;BME280;62523;53.336;83.690;2023-09-07T12:28:07;99160.69;;;12.13;100.00
74169;BME280;62523;53.336;83.690;2023-09-07T12:33:09;99169.00;;;12.07;100.00
74169;BME280;62523;53.336;83.690;2023-09-07T12:38:10;99171.47;;;11.96;100.00
74169;BME280;62523;53.336;83.690;2023-09-07T12:43:14;99178.00;;;11.90;100.00
74169;BME280;62523;53.336;83.690;2023-09-07T12:48:16;99181.94;;;11.83;100.00
74169;BME280;62523;53.336;83.690;2023-09-07T12:53:18;99195.72;;;11.74;100.00
74169;BME280;62523;53.336;83.690;2023-09-07T12:58:20;99195.81;;;11.72;100.00
74169;BME280;62523;53.336;83.690;2023-09-07T13:03:22;99206.41;;;11.58;100.00
74169;BME280;62523;53.336;83.690;2023-09-07T13:08:23;99215.63;;;11.51;100.00
74169;BME280;62523;53.336;83.690;2023-09-07T13:13:25;99210.06;;;11.41;100.00
74169;BME280;62523;53.336;83.690;2023-09-07T13:18:33;99222.22;;;11.29;100.00
74169;BME280;62523;53.336;83.690;2023-09-07T13:23:34;99218.19;;;11.23;100.00
74169;BME280;62523;53.336;83.690;2023-09-07T13:28:36;99218.53;;;11.17;100.00
74169;BME280;62523;53.336;83.690;2023-09-07T13:33:37;99221.63;;;11.10;100.00
74169;BME280;62523;53.336;83.690;2023-09-07T13:38:38;99237.31;;;10.97;100.00
74169;BME280;62523;53.336;83.690;2023-09-07T13:43:42;99231.81;;;11.01;100.00
74169;BME280;62523;53.336;83.690;2023-09-07T13:48:43;99231.13;;;10.98;100.00
74169;BME280;62523;53.336;83.690;2023-09-07T13:53:45;99233.84;;;10.96;100.00
74169;BME280;62523;53.336;83.690;2023-09-07T13:58:47;99234.19;;;10.90;100.00
74169;BME280;62523;53.336;83.690;2023-09-07T14:03:48;99236.41;;;10.98;100.00
74169;BME280;62523;53.336;83.690;2023-09-07T14:08:50;99236.84;;;10.90;100.00
74169;BME280;62523;53.336;83.690;2023-09-07T14:13:52;99239.00;;;10.83;100.00
74169;BME280;62523;53.336;83.690;2023-09-07T14:18:55;99243.41;;;10.83;100.00
74169;BME280;62523;53.336;83.690;2023-09-07T14:23:56;99249.22;;;10.74;100.00
74169;BME280;62523;53.336;83.690;2023-09-07T14:28:58;99246.63;;;10.58;100.00
74169;BME280;62523;53.336;83.690;2023-09-07T14:33:59;99253.38;;;10.48;100.00
74169;BME280;62523;53.336;83.690;2023-09-07T14:39:00;99261.16;;;10.49;100.00
74169;BME280;62523;53.336;83.690;2023-09-07T14:44:04;99263.47;;;10.39;100.00
74169;BME280;62523;53.336;83.690;2023-09-07T14:49:05;99246.38;;;10.47;100.00
74169;BME280;62523;53.336;83.690;2023-09-07T14:54:07;99234.41;;;10.41;100.00
74169;BME280;62523;53.336;83.690;2023-09-07T14:59:08;99236.03;;;10.43;100.00
74169;BME280;62523;53.336;83.690;2023-09-07T15:04:10;99227.41;;;10.56;100.00
74169;BME280;62523;53.336;83.690;2023-09-07T15:09:12;99224.69;;;10.57;100.00
74169;BME280;62523;53.336;83.690;2023-09-07T15:14:13;99217.47;;;10.61;100.00
74169;BME280;62523;53.336;83.690;2023-09-07T15:19:15;99218.75;;;10.54;100.00
74169;BME280;62523;53.336;83.690;2023-09-07T15:24:17;99214.34;;;10.54;100.00
74169;BME280;62523;53.336;83.690;2023-09-07T15:29:19;99218.09;;;10.50;100.00
74169;BME280;62523;53.336;83.690;2023-09-07T15:34:21;99214.03;;;10.44;100.00
74169;BME280;62523;53.336;83.690;2023-09-07T15:39:23;99216.72;;;10.43;100.00
74169;BME280;62523;53.336;83.690;2023-09-07T15:44:25;99216.16;;;10.38;100.00
74169;BME280;62523;53.336;83.690;2023-09-07T15:49:29;99216.16;;;10.38;100.00
74169;BME280;62523;53.336;83.690;2023-09-07T15:54:30;99216.84;;;10.41;100.00
74169;BME280;62523;53.336;83.690;2023-09-07T15:59:32;99212.34;;;10.43;100.00
74169;BME280;62523;53.336;83.690;2023-09-07T16:04:34;99220.31;;;10.42;100.00
74169;BME280;62523;53.336;83.690;2023-09-07T16:09:35;99214.63;;;10.34;100.00
74169;BME280;62523;53.336;83.690;2023-09-07T16:14:37;99218.53;;;10.27;100.00
74169;BME280;62523;53.336;83.690;2023-09-07T16:19:38;99227.88;;;10.32;100.00
74169;BME280;62523;53.336;83.690;2023-09-07T16:24:40;99223.28;;;10.20;100.00
74169;BME280;62523;53.336;83.690;2023-09-07T16:29:42;99232.81;;;10.22;100.00
74169;BME280;62523;53.336;83.690;2023-09-07T16:34:45;99227.63;;;10.21;100.00
74169;BME280;62523;53.336;83.690;2023-09-07T16:39:47;99233.81;;;10.20;100.00
74169;BME280;62523;53.336;83.690;2023-09-07T16:44:52;99238.59;;;10.13;100.00
74169;BME280;62523;53.336;83.690;2023-09-07T16:49:54;99234.44;;;10.09;100.00
74169;BME280;62523;53.336;83.690;2023-09-07T16:54:56;99233.06;;;10.02;100.00
74169;BME280;62523;53.336;83.690;2023-09-07T16:59:57;99240.19;;;10.00;100.00
74169;BME280;62523;53.336;83.690;2023-09-07T17:04:59;99234.50;;;9.92;100.00
74169;BME280;62523;53.336;83.690;2023-09-07T17:10:01;99230.94;;;9.93;100.00
74169;BME280;62523;53.336;83.690;2023-09-07T17:15:05;99230.16;;;9.91;100.00
74169;BME280;62523;53.336;83.690;2023-09-07T17:20:07;99229.47;;;9.87;100.00
74169;BME280;62523;53.336;83.690;2023-09-07T17:25:10;99222.19;;;9.92;100.00
74169;BME280;62523;53.336;83.690;2023-09-07T17:30:12;99224.06;;;9.90;100.00
74169;BME280;62523;53.336;83.690;2023-09-07T17:35:14;99218.34;;;9.98;100.00
74169;BME280;62523;53.336;83.690;2023-09-07T17:40:15;99224.84;;;9.92;100.00
74169;BME280;62523;53.336;83.690;2023-09-07T17:45:17;99211.66;;;9.76;100.00
74169;BME280;62523;53.336;83.690;2023-09-07T17:50:19;99209.44;;;9.69;100.00
74169;BME280;62523;53.336;83.690;2023-09-07T17:55:20;99207.84;;;9.66;100.00
74169;BME280;62523;53.336;83.690;2023-09-07T18:00:22;99200.78;;;9.67;100.00
74169;BME280;62523;53.336;83.690;2023-09-07T18:05:23;99211.75;;;9.75;100.00
74169;BME280;62523;53.336;83.690;2023-09-07T18:10:25;99198.75;;;9.72;100.00
74169;BME280;62523;53.336;83.690;2023-09-07T18:15:26;99194.25;;;9.74;100.00
74169;BME280;62523;53.336;83.690;2023-09-07T18:20:27;99186.22;;;9.77;100.00
74169;BME280;62523;53.336;83.690;2023-09-07T18:25:29;99193.84;;;9.81;100.00
74169;BME280;62523;53.336;83.690;2023-09-07T18:30:34;99185.44;;;9.75;100.00
74169;BME280;62523;53.336;83.690;2023-09-07T18:35:35;99187.06;;;9.77;100.00
74169;BME280;62523;53.336;83.690;2023-09-07T18:40:37;99177.63;;;9.73;100.00
74169;BME280;62523;53.336;83.690;2023-09-07T18:45:39;99172.63;;;9.69;100.00
74169;BME280;62523;53.336;83.690;2023-09-07T18:50:40;99173.53;;;9.68;100.00
74169;BME280;62523;53.336;83.690;2023-09-07T18:55:42;99174.13;;;9.57;100.00
74169;BME280;62523;53.336;83.690;2023-09-07T19:00:43;99170.22;;;9.48;100.00
74169;BME280;62523;53.336;83.690;2023-09-07T19:05:45;99171.31;;;9.44;100.00
74169;BME280;62523;53.336;83.690;2023-09-07T19:10:46;99168.34;;;9.34;100.00
74169;BME280;62523;53.336;83.690;2023-09-07T19:15:48;99165.47;;;9.39;100.00
74169;BME280;62523;53.336;83.690;2023-09-07T19:20:54;99161.06;;;9.39;100.00
74169;BME280;62523;53.336;83.690;2023-09-07T19:26:36;99151.41;;;9.40;100.00
74169;BME280;62523;53.336;83.690;2023-09-07T19:31:39;99155.97;;;9.36;100.00
74169;BME280;62523;53.336;83.690;2023-09-07T19:36:41;99159.63;;;9.34;100.00
74169;BME280;62523;53.336;83.690;2023-09-07T19:41:43;99164.38;;;9.27;100.00
74169;BME280;62523;53.336;83.690;2023-09-07T19:46:45;99158.94;;;9.30;100.00
74169;BME280;62523;53.336;83.690;2023-09-07T19:51:46;99147.00;;;9.40;100.00
74169;BME280;62523;53.336;83.690;2023-09-07T19:56:48;99144.25;;;9.42;100.00
74169;BME280;62523;53.336;83.690;2023-09-07T20:06:55;99141.03;;;9.37;100.00
74169;BME280;62523;53.336;83.690;2023-09-07T20:11:59;99142.22;;;9.31;100.00
74169;BME280;62523;53.336;83.690;2023-09-07T20:17:01;99134.50;;;9.28;100.00
74169;BME280;62523;53.336;83.690;2023-09-07T20:22:02;99135.44;;;9.27;100.00
74169;BME280;62523;53.336;83.690;2023-09-07T20:27:04;99121.38;;;9.28;100.00
74169;BME280;62523;53.336;83.690;2023-09-07T20:32:06;99129.31;;;9.27;100.00
74169;BME280;62523;53.336;83.690;2023-09-07T20:37:08;99129.19;;;9.30;100.00
74169;BME280;62523;53.336;83.690;2023-09-07T20:42:10;99119.69;;;9.27;100.00
74169;BME280;62523;53.336;83.690;2023-09-07T20:47:11;99118.03;;;9.25;100.00
74169;BME280;62523;53.336;83.690;2023-09-07T20:52:13;99117.19;;;9.24;100.00
74169;BME280;62523;53.336;83.690;2023-09-07T20:57:14;99111.94;;;9.24;100.00
74169;BME280;62523;53.336;83.690;2023-09-07T21:02:16;99106.94;;;9.19;100.00
74169;BME280;62523;53.336;83.690;2023-09-07T21:07:17;99110.25;;;9.23;100.00
74169;BME280;62523;53.336;83.690;2023-09-07T21:12:18;99104.06;;;9.24;100.00
74169;BME280;62523;53.336;83.690;2023-09-07T21:17:20;99109.81;;;9.31;100.00
74169;BME280;62523;53.336;83.690;2023-09-07T21:22:22;99105.25;;;9.34;100.00
74169;BME280;62523;53.336;83.690;2023-09-07T21:27:26;99113.06;;;9.36;100.00
74169;BME280;62523;53.336;83.690;2023-09-07T21:32:27;99106.09;;;9.35;100.00
74169;BME280;62523;53.336;83.690;2023-09-07T21:37:29;99106.94;;;9.35;100.00
74169;BME280;62523;53.336;83.690;2023-09-07T21:42:31;99109.81;;;9.31;100.00
74169;BME280;62523;53.336;83.690;2023-09-07T21:47:32;99107.13;;;9.32;100.00
74169;BME280;62523;53.336;83.690;2023-09-07T21:52:34;99096.03;;;9.27;100.00
74169;BME280;62523;53.336;83.690;2023-09-07T21:57:35;99095.06;;;9.28;100.00
74169;BME280;62523;53.336;83.690;2023-09-07T22:02:37;99094.31;;;9.26;100.00
74169;BME280;62523;53.336;83.690;2023-09-07T22:07:39;99101.50;;;9.22;100.00
74169;BME280;62523;53.336;83.690;2023-09-07T22:12:40;99090.16;;;9.22;100.00
74169;BME280;62523;53.336;83.690;2023-09-07T22:17:42;99084.56;;;9.12;100.00
74169;BME280;62523;53.336;83.690;2023-09-07T22:22:44;99087.25;;;9.11;100.00
74169;BME280;62523;53.336;83.690;2023-09-07T22:27:45;99089.88;;;9.11;100.00
74169;BME280;62523;53.336;83.690;2023-09-07T22:32:47;99087.41;;;9.08;100.00
74169;BME280;62523;53.336;83.690;2023-09-07T22:37:49;99094.38;;;9.09;100.00
74169;BME280;62523;53.336;83.690;2023-09-07T22:42:50;99097.19;;;9.06;100.00
74169;BME280;62523;53.336;83.690;2023-09-07T22:47:52;99097.91;;;9.08;100.00
74169;BME280;62523;53.336;83.690;2023-09-07T22:52:53;99091.06;;;9.05;100.00
74169;BME280;62523;53.336;83.690;2023-09-07T22:57:55;99093.88;;;9.02;100.00
74169;BME280;62523;53.336;83.690;2023-09-07T23:02:57;99087.16;;;8.96;100.00
74169;BME280;62523;53.336;83.690;2023-09-07T23:07:58;99089.69;;;8.98;100.00
74169;BME280;62523;53.336;83.690;2023-09-07T23:13:02;99087.16;;;8.96;100.00
74169;BME280;62523;53.336;83.690;2023-09-07T23:18:04;99092.56;;;8.93;100.00
74169;BME280;62523;53.336;83.690;2023-09-07T23:23:06;99092.50;;;8.95;100.00
74169;BME280;62523;53.336;83.690;2023-09-07T23:28:08;99101.28;;;8.94;100.00
74169;BME280;62523;53.336;83.690;2023-09-07T23:33:09;99100.28;;;8.96;100.00
74169;BME280;62523;53.336;83.690;2023-09-07T23:38:11;99089.09;;;8.93;100.00
74169;BME280;62523;53.336;83.690;2023-09-07T23:43:12;99090.84;;;8.92;100.00
74169;BME280;62523;53.336;83.690;2023-09-07T23:48:13;99079.75;;;8.87;100.00
74169;BME280;62523;53.336;83.690;2023-09-07T23:53:15;99081.03;;;8.80;100.00
74169;BME280;62523;53.336;83.690;2023-09-07T23:58:17;99081.88;;;8.80;100.00
